Time;durP1;ratioP1;P1;durP2;ratioP2;P2;SDS_P1;SDS_P2;PMS_P1;PMS_P2;Temp;Humidity;BMP_temperature;BMP_pressure;BME280_temperature;BME280_humidity;BME280_pressure;Samples;Min_cycle;Max_cycle;Signal;HPM_P1;HPM_P2
2023/06/14 00:01:27;;;;;;;;;;;;;;;;;;5074612;28;19975;-70
2023/06/14 00:03:53;;;;;;;;;;;;;;;;;;5075877;28;19956;-70
2023/06/14 00:06:19;;;;;;;;;;;;;;;;;;5075707;28;19955;-70
2023/06/14 00:08:45;;;;;;;;;;;;;;;;;;5075703;28;19956;-70
2023/06/14 00:11:11;;;;;;;;;;;;;;;;;;5075922;28;19962;-70
2023/06/14 00:13:37;;;;;;;;;;;;;;;;;;5075513;28;19995;-69
2023/06/14 00:16:04;;;;;;;;;;;;;;;;;;5075772;28;19955;-70
2023/06/14 00:18:30;;;;;;;;;;;;;;;;;;5075765;28;19955;-70
2023/06/14 00:20:56;;;;;;;;;;;;;;;;;;5075907;28;19980;-69
2023/06/14 00:23:22;;;;;;;;;;;;;;;;;;5075369;28;19956;-70
2023/06/14 00:25:48;;;;;;;;;;;;;;;;;;5075333;28;19956;-70
2023/06/14 00:28:14;;;;;;;;;;;;;;;;;;5075807;28;19978;-70
2023/06/14 00:30:40;;;;;;;;;;;;;;;;;;5075505;28;19956;-69
2023/06/14 00:33:06;;;;;;;;;;;;;;;;;;5075154;28;19955;-70
2023/06/14 00:35:32;;;;;;;;;;;;;;;;;;5075348;28;19972;-69
2023/06/14 00:37:59;;;;;;;;;;;;;;;;;;5075419;28;20364;-70
2023/06/14 00:40:25;;;;;;;;;;;;;;;;;;5075263;28;20441;-69
2023/06/14 00:42:51;;;;;;;;;;;;;;;;;;5074920;28;20073;-70
2023/06/14 00:45:17;;;;;;;;;;;;;;;;;;5074959;28;19959;-70
2023/06/14 00:47:43;;;;;;;;;;;;;;;;;;5074861;28;20058;-69
2023/06/14 00:50:09;;;;;;;;;;;;;;;;;;5075431;28;19955;-70
2023/06/14 00:52:34;;;;;;;;;;;;;;;;;;5074808;28;19987;-70
2023/06/14 00:55:00;;;;;;;;;;;;;;;;;;5074942;28;20058;-69
2023/06/14 00:57:26;;;;;;;;;;;;;;;;;;5074983;28;19959;-70
2023/06/14 00:59:55;;;;;;;;;;;;;;;;;;5074817;28;20042;-70
2023/06/14 01:02:21;;;;;;;;;;;;;;;;;;5074657;28;19955;-70
2023/06/14 01:04:50;;;;;;;;;;;;;;;;;;5074494;28;19959;-70
2023/06/14 01:07:15;;;;;;;;;;;;;;;;;;5075012;28;20317;-69
2023/06/14 01:09:41;;;;;;;;;;;;;;;;;;5074465;28;19955;-70
2023/06/14 01:12:07;;;;;;;;;;;;;;;;;;5072888;28;20009;-70
2023/06/14 01:14:33;;;;;;;;;;;;;;;;;;5073949;28;19959;-69
2023/06/14 01:17:00;;;;;;;;;;;;;;;;;;5074289;28;19977;-69
2023/06/14 01:19:27;;;;;;;;;;;;;;;;;;5074302;28;19999;-69
2023/06/14 01:21:55;;;;;;;;;;;;;;;;;;5074443;28;20009;-70
2023/06/14 01:24:25;;;;;;;;;;;;;;;;;;5074237;28;20429;-70
2023/06/14 01:26:51;;;;;;;;;;;;;;;;;;5074157;28;19978;-70
2023/06/14 01:29:17;;;;;;;;;;;;;;;;;;5075245;28;20405;-70
2023/06/14 01:31:43;;;;;;;;;;;;;;;;;;5074287;28;19959;-70
2023/06/14 01:34:09;;;;;;;;;;;;;;;;;;5074511;28;20329;-69
2023/06/14 01:36:35;;;;;;;;;;;;;;;;;;5074231;28;19956;-70
2023/06/14 01:39:01;;;;;;;;;;;;;;;;;;5073960;28;19956;-69
2023/06/14 01:41:27;;;;;;;;;;;;;;;;;;5074101;28;19979;-69
2023/06/14 01:43:52;;;;;;;;;;;;;;;;;;5073779;28;19991;-70
2023/06/14 01:46:18;;;;;;;;;;;;;;;;;;5074124;28;20006;-70
2023/06/14 01:48:45;;;;;;;;;;;;;;;;;;5073804;28;20417;-70
2023/06/14 01:51:10;;;;;;;;;;;;;;;;;;5073778;28;19956;-69
2023/06/14 01:53:36;;;;;;;;;;;;;;;;;;5073806;28;19966;-70
2023/06/14 01:56:03;;;;;;;;;;;;;;;;;;5074025;28;19956;-69
2023/06/14 01:58:29;;;;;;;;;;;;;;;;;;5073949;28;19963;-70
2023/06/14 02:00:55;;;;;;;;;;;;;;;;;;5073872;28;20082;-69
2023/06/14 02:03:21;;;;;;;;;;;;;;;;;;5073619;28;19955;-69
2023/06/14 02:05:47;;;;;;;;;;;;;;;;;;5073865;28;19971;-70
2023/06/14 02:08:13;;;;;;;;;;;;;;;;;;5073664;28;19955;-69
2023/06/14 02:10:38;;;;;;;;;;;;;;;;;;5073931;28;19963;-70
2023/06/14 02:13:04;;;;;;;;;;;;;;;;;;5073554;28;19960;-70
2023/06/14 02:15:33;;;;;;;;;;;;;;;;;;5073547;28;20042;-69
2023/06/14 02:18:00;;;;;;;;;;;;;;;;;;5073851;28;19959;-69
2023/06/14 02:20:25;;;;;;;;;;;;;;;;;;5073727;28;20340;-70
2023/06/14 02:22:51;;;;;;;;;;;;;;;;;;5073483;28;19956;-69
2023/06/14 02:25:17;;;;;;;;;;;;;;;;;;5074948;28;19955;-70
2023/06/14 02:27:43;;;;;;;;;;;;;;;;;;5077564;28;20413;-70
2023/06/14 02:30:09;;;;;;;;;;;;;;;;;;5078024;28;19956;-69
2023/06/14 02:32:35;;;;;;;;;;;;;;;;;;5077736;28;19956;-69
2023/06/14 02:35:01;;;;;;;;;;;;;;;;;;5077364;28;20349;-70
2023/06/14 02:37:27;;;;;;;;;;;;;;;;;;5077390;28;19966;-69
2023/06/14 02:39:53;;;;;;;;;;;;;;;;;;5077599;28;20050;-69
2023/06/14 02:42:18;;;;;;;;;;;;;;;;;;5077342;28;19979;-69
2023/06/14 02:44:46;;;;;;;;;;;;;;;;;;5077488;28;19960;-69
2023/06/14 02:47:12;;;;;;;;;;;;;;;;;;5077229;28;20302;-70
2023/06/14 02:49:38;;;;;;;;;;;;;;;;;;5077678;28;20046;-69
2023/06/14 02:52:04;;;;;;;;;;;;;;;;;;5077374;28;19956;-70
2023/06/14 02:54:30;;;;;;;;;;;;;;;;;;5077107;28;20042;-69
2023/06/14 02:56:56;;;;;;;;;;;;;;;;;;5077559;28;20436;-70
2023/06/14 02:59:25;;;;;;;;;;;;;;;;;;5076952;28;19959;-69
2023/06/14 03:01:51;;;;;;;;;;;;;;;;;;5077155;28;20041;-69
2023/06/14 03:04:16;;;;;;;;;;;;;;;;;;5076890;28;19960;-70
2023/06/14 03:06:44;;;;;;;;;;;;;;;;;;5076782;28;20435;-69
2023/06/14 03:09:10;;;;;;;;;;;;;;;;;;5076781;28;19955;-69
2023/06/14 03:11:36;;;;;;;;;;;;;;;;;;5077016;28;20088;-70
2023/06/14 03:14:04;;;;;;;;;;;;;;;;;;5077237;28;19956;-69
2023/06/14 03:16:31;;;;;;;;;;;;;;;;;;5076660;28;20404;-69
2023/06/14 03:18:57;;;;;;;;;;;;;;;;;;5077172;28;20432;-69
2023/06/14 03:21:23;;;;;;;;;;;;;;;;;;5076429;28;19975;-70
2023/06/14 03:23:49;;;;;;;;;;;;;;;;;;5076768;28;19991;-70
2023/06/14 03:26:17;;;;;;;;;;;;;;;;;;5076476;28;20376;-69
2023/06/14 03:28:43;;;;;;;;;;;;;;;;;;5077556;28;20006;-69
2023/06/14 03:31:09;;;;;;;;;;;;;;;;;;5076656;28;19956;-69
2023/06/14 03:33:35;;;;;;;;;;;;;;;;;;5076280;28;19955;-69
2023/06/14 03:36:01;;;;;;;;;;;;;;;;;;5076260;28;20005;-70
2023/06/14 03:38:27;;;;;;;;;;;;;;;;;;5076193;28;19985;-69
2023/06/14 03:40:53;;;;;;;;;;;;;;;;;;5076661;28;20325;-70
2023/06/14 03:43:19;;;;;;;;;;;;;;;;;;5076104;28;19998;-69
2023/06/14 03:45:45;;;;;;;;;;;;;;;;;;5076076;28;20397;-69
2023/06/14 03:48:11;;;;;;;;;;;;;;;;;;5076095;28;20068;-69
2023/06/14 03:50:40;;;;;;;;;;;;;;;;;;5076590;28;19960;-69
2023/06/14 03:53:06;;;;;;;;;;;;;;;;;;5075955;28;19956;-70
2023/06/14 03:55:33;;;;;;;;;;;;;;;;;;5076490;28;20301;-69
2023/06/14 03:57:58;;;;;;;;;;;;;;;;;;5076214;28;19963;-70
2023/06/14 04:00:24;;;;;;;;;;;;;;;;;;5075736;28;20062;-70
2023/06/14 04:02:50;;;;;;;;;;;;;;;;;;5076402;28;20407;-70
2023/06/14 04:05:18;;;;;;;;;;;;;;;;;;5076020;28;19967;-70
2023/06/14 04:07:44;;;;;;;;;;;;;;;;;;5075740;28;20021;-70
2023/06/14 04:10:10;;;;;;;;;;;;;;;;;;5075976;28;20405;-70
2023/06/14 04:12:36;;;;;;;;;;;;;;;;;;5075613;28;19966;-70
2023/06/14 04:15:02;;;;;;;;;;;;;;;;;;5075860;28;19998;-70
2023/06/14 04:17:28;;;;;;;;;;;;;;;;;;5075863;28;20317;-70
2023/06/14 04:19:54;;;;;;;;;;;;;;;;;;5075780;28;19955;-70
2023/06/14 04:22:20;;;;;;;;;;;;;;;;;;5075358;28;19979;-69
2023/06/14 04:24:46;;;;;;;;;;;;;;;;;;5075622;28;19955;-69
2023/06/14 04:27:14;;;;;;;;;;;;;;;;;;5075335;28;19955;-69
2023/06/14 04:29:43;;;;;;;;;;;;;;;;;;5076401;28;19955;-70
2023/06/14 04:32:10;;;;;;;;;;;;;;;;;;5075291;28;19956;-69
2023/06/14 04:34:37;;;;;;;;;;;;;;;;;;5075429;28;19971;-69
2023/06/14 04:37:03;;;;;;;;;;;;;;;;;;5075169;28;19956;-69
2023/06/14 04:39:29;;;;;;;;;;;;;;;;;;5075682;28;20002;-69
2023/06/14 04:41:56;;;;;;;;;;;;;;;;;;5074964;28;19976;-69
2023/06/14 04:44:24;;;;;;;;;;;;;;;;;;5074626;28;19991;-69
2023/06/14 04:46:50;;;;;;;;;;;;;;;;;;5074940;28;19965;-70
2023/06/14 04:49:16;;;;;;;;;;;;;;;;;;5074122;28;20067;-69
2023/06/14 04:51:42;;;;;;;;;;;;;;;;;;5075448;28;19956;-69
2023/06/14 04:54:09;;;;;;;;;;;;;;;;;;5075366;28;19956;-69
2023/06/14 04:56:37;;;;;;;;;;;;;;;;;;5075028;28;20325;-69
2023/06/14 04:59:04;;;;;;;;;;;;;;;;;;5074713;28;19971;-70
2023/06/14 05:01:31;;;;;;;;;;;;;;;;;;5073373;28;20372;-70
2023/06/14 05:03:57;;;;;;;;;;;;;;;;;;5074652;28;19960;-69
2023/06/14 05:06:23;;;;;;;;;;;;;;;;;;5074831;28;19962;-69
2023/06/14 05:08:49;;;;;;;;;;;;;;;;;;5074802;28;19982;-69
2023/06/14 05:11:16;;;;;;;;;;;;;;;;;;5074451;28;19981;-69
2023/06/14 05:13:43;;;;;;;;;;;;;;;;;;5074650;28;19991;-69
2023/06/14 05:16:10;;;;;;;;;;;;;;;;;;5074675;28;19959;-69
2023/06/14 05:18:37;;;;;;;;;;;;;;;;;;5074297;28;19959;-69
2023/06/14 05:21:04;;;;;;;;;;;;;;;;;;5074129;28;20070;-69
2023/06/14 05:23:30;;;;;;;;;;;;;;;;;;5074561;28;19963;-69
2023/06/14 05:25:56;;;;;;;;;;;;;;;;;;5074149;28;19960;-70
2023/06/14 05:28:22;;;;;;;;;;;;;;;;;;5074452;28;20046;-70
2023/06/14 05:30:48;;;;;;;;;;;;;;;;;;5074598;28;20003;-70
2023/06/14 05:33:14;;;;;;;;;;;;;;;;;;5074039;28;20427;-69
2023/06/14 05:35:40;;;;;;;;;;;;;;;;;;5073929;28;19978;-70
2023/06/14 05:38:07;;;;;;;;;;;;;;;;;;5074506;28;20310;-70
2023/06/14 05:40:33;;;;;;;;;;;;;;;;;;5073790;28;20504;-69
2023/06/14 05:42:59;;;;;;;;;;;;;;;;;;5074059;28;20042;-70
2023/06/14 05:45:25;;;;;;;;;;;;;;;;;;5073810;28;19955;-70
2023/06/14 05:47:51;;;;;;;;;;;;;;;;;;5073837;28;19973;-69
2023/06/14 05:50:17;;;;;;;;;;;;;;;;;;5074373;28;19970;-69
2023/06/14 05:52:42;;;;;;;;;;;;;;;;;;5073762;28;20050;-69
2023/06/14 05:55:08;;;;;;;;;;;;;;;;;;5074061;28;19956;-69
2023/06/14 05:57:35;;;;;;;;;;;;;;;;;;5073747;28;20463;-70
2023/06/14 06:00:05;;;;;;;;;;;;;;;;;;5073991;28;19959;-70
2023/06/14 06:02:31;;;;;;;;;;;;;;;;;;5074021;28;20006;-70
2023/06/14 06:04:57;;;;;;;;;;;;;;;;;;5073554;28;20022;-70
2023/06/14 06:07:23;;;;;;;;;;;;;;;;;;5074128;28;19956;-69
2023/06/14 06:09:49;;;;;;;;;;;;;;;;;;5073580;28;19990;-70
2023/06/14 06:12:15;;;;;;;;;;;;;;;;;;5073629;28;19963;-70
2023/06/14 06:14:41;;;;;;;;;;;;;;;;;;5073589;28;19963;-70
2023/06/14 06:17:07;;;;;;;;;;;;;;;;;;5073817;28;19960;-69
2023/06/14 06:19:33;;;;;;;;;;;;;;;;;;5073562;28;20311;-70
2023/06/14 06:21:58;;;;;;;;;;;;;;;;;;5073973;28;19976;-70
2023/06/14 06:24:25;;;;;;;;;;;;;;;;;;5073477;28;19955;-70
2023/06/14 06:26:50;;;;;;;;;;;;;;;;;;5073463;28;20006;-69
2023/06/14 06:29:16;;;;;;;;;;;;;;;;;;5074229;28;19959;-69
2023/06/14 06:31:42;;;;;;;;;;;;;;;;;;5072934;28;20340;-70
2023/06/14 06:34:08;;;;;;;;;;;;;;;;;;5072936;28;20020;-70
2023/06/14 06:36:35;;;;;;;;;;;;;;;;;;5072412;28;20330;-69
2023/06/14 06:39:00;;;;;;;;;;;;;;;;;;5073328;28;20337;-69
2023/06/14 06:41:26;;;;;;;;;;;;;;;;;;5073125;28;20036;-69
2023/06/14 06:43:52;;;;;;;;;;;;;;;;;;5073244;28;20039;-69
2023/06/14 06:46:19;;;;;;;;;;;;;;;;;;5073249;28;19962;-69
2023/06/14 06:48:45;;;;;;;;;;;;;;;;;;5073258;28;20005;-69
2023/06/14 06:51:12;;;;;;;;;;;;;;;;;;5073184;28;19960;-69
2023/06/14 06:53:38;;;;;;;;;;;;;;;;;;5073227;28;20006;-70
2023/06/14 06:56:05;;;;;;;;;;;;;;;;;;5073379;28;19963;-70
2023/06/14 06:58:31;;;;;;;;;;;;;;;;;;5073189;28;19955;-69
2023/06/14 07:00:57;;;;;;;;;;;;;;;;;;5073044;28;20437;-70
2023/06/14 07:03:23;;;;;;;;;;;;;;;;;;5073348;28;19956;-69
2023/06/14 07:05:49;;;;;;;;;;;;;;;;;;5073087;28;19955;-69
2023/06/14 07:08:14;;;;;;;;;;;;;;;;;;5073053;28;19956;-70
2023/06/14 07:10:40;;;;;;;;;;;;;;;;;;5073380;28;20331;-69
2023/06/14 07:13:06;;;;;;;;;;;;;;;;;;5076665;28;20101;-70
2023/06/14 07:15:33;;;;;;;;;;;;;;;;;;5076649;28;19956;-70
2023/06/14 07:17:59;;;;;;;;;;;;;;;;;;5076627;28;19962;-70
2023/06/14 07:20:25;;;;;;;;;;;;;;;;;;5076797;28;20066;-70
2023/06/14 07:22:51;;;;;;;;;;;;;;;;;;5076518;28;20005;-70
2023/06/14 07:25:19;;;;;;;;;;;;;;;;;;5076712;28;19963;-71
2023/06/14 07:27:45;;;;;;;;;;;;;;;;;;5076743;28;20009;-70
2023/06/14 07:30:11;;;;;;;;;;;;;;;;;;5076912;28;19960;-70
2023/06/14 07:32:37;;;;;;;;;;;;;;;;;;5074792;28;20326;-70
2023/06/14 07:35:03;;;;;;;;;;;;;;;;;;5076249;28;19971;-70
2023/06/14 07:37:29;;;;;;;;;;;;;;;;;;5076530;28;19963;-70
2023/06/14 07:39:55;;;;;;;;;;;;;;;;;;5076212;28;19962;-70
2023/06/14 07:42:21;;;;;;;;;;;;;;;;;;5076250;28;20352;-70
2023/06/14 07:44:47;;;;;;;;;;;;;;;;;;5076156;28;19970;-71
2023/06/14 07:47:13;;;;;;;;;;;;;;;;;;5076422;28;19963;-71
2023/06/14 07:49:39;;;;;;;;;;;;;;;;;;5076140;28;19963;-70
2023/06/14 07:52:05;;;;;;;;;;;;;;;;;;5076348;28;19956;-70
2023/06/14 07:54:32;;;;;;;;;;;;;;;;;;5075960;28;19962;-70
2023/06/14 07:57:00;;;;;;;;;;;;;;;;;;5075972;28;20040;-71
2023/06/14 07:59:26;;;;;;;;;;;;;;;;;;5076122;28;19955;-70
2023/06/14 08:01:52;;;;;;;;;;;;;;;;;;5075755;28;19976;-71
2023/06/14 08:04:18;;;;;;;;;;;;;;;;;;5075805;28;20072;-70
2023/06/14 08:06:45;;;;;;;;;;;;;;;;;;5076017;28;19956;-71
2023/06/14 08:09:11;;;;;;;;;;;;;;;;;;5075732;28;20338;-71
2023/06/14 08:11:37;;;;;;;;;;;;;;;;;;5075711;28;20009;-71
2023/06/14 08:14:03;;;;;;;;;;;;;;;;;;5075633;28;19955;-71
2023/06/14 08:16:28;;;;;;;;;;;;;;;;;;5075828;28;19960;-71
2023/06/14 08:18:54;;;;;;;;;;;;;;;;;;5075533;28;20444;-71
2023/06/14 08:21:20;;;;;;;;;;;;;;;;;;5074919;28;19982;-70
2023/06/14 08:23:47;;;;;;;;;;;;;;;;;;5074339;28;20042;-71
2023/06/14 08:26:13;;;;;;;;;;;;;;;;;;5074997;28;20160;-70
2023/06/14 08:28:39;;;;;;;;;;;;;;;;;;5074131;28;19987;-73
2023/06/14 08:31:05;;;;;;;;;;;;;;;;;;5074451;28;19989;-72
2023/06/14 08:33:34;;;;;;;;;;;;;;;;;;5074525;28;20013;-75
2023/06/14 08:36:00;;;;;;;;;;;;;;;;;;5073118;28;19964;-75
2023/06/14 08:38:26;;;;;;;;;;;;;;;;;;5074298;28;20050;-75
2023/06/14 08:40:52;;;;;;;;;;;;;;;;;;5074508;28;20025;-76
2023/06/14 08:43:18;;;;;;;;;;;;;;;;;;5074845;28;20548;-75
2023/06/14 08:45:43;;;;;;;;;;;;;;;;;;5074985;28;20038;-75
2023/06/14 08:48:09;;;;;;;;;;;;;;;;;;5073669;28;19960;-75
2023/06/14 08:50:36;;;;;;;;;;;;;;;;;;5074888;28;20421;-74
2023/06/14 08:53:02;;;;;;;;;;;;;;;;;;5074860;28;19970;-72
2023/06/14 08:55:28;;;;;;;;;;;;;;;;;;5074844;28;20065;-75
2023/06/14 08:57:54;;;;;;;;;;;;;;;;;;5073478;28;20380;-75
2023/06/14 09:00:21;;;;;;;;;;;;;;;;;;5074578;28;19955;-76
2023/06/14 09:02:46;;;;;;;;;;;;;;;;;;5075202;28;20127;-72
2023/06/14 09:05:13;;;;;;;;;;;;;;;;;;5074841;28;19960;-72
2023/06/14 09:07:40;;;;;;;;;;;;;;;;;;5074843;28;20427;-73
2023/06/14 09:10:06;;;;;;;;;;;;;;;;;;5074801;28;20048;-72
2023/06/14 09:12:32;;;;;;;;;;;;;;;;;;5075018;28;19960;-72
2023/06/14 09:14:58;;;;;;;;;;;;;;;;;;5073145;28;20322;-73
2023/06/14 09:17:24;;;;;;;;;;;;;;;;;;5074369;28;20064;-73
2023/06/14 09:19:50;;;;;;;;;;;;;;;;;;5074614;28;19955;-72
2023/06/14 09:22:16;;;;;;;;;;;;;;;;;;5074156;28;20073;-72
2023/06/14 09:24:42;;;;;;;;;;;;;;;;;;5074500;28;20002;-72
2023/06/14 09:27:08;;;;;;;;;;;;;;;;;;5074213;28;20042;-72
2023/06/14 09:29:34;;;;;;;;;;;;;;;;;;5075228;28;20417;-72
2023/06/14 09:32:00;;;;;;;;;;;;;;;;;;5074412;28;19959;-72
2023/06/14 09:34:26;;;;;;;;;;;;;;;;;;5073696;28;19972;-72
2023/06/14 09:36:52;;;;;;;;;;;;;;;;;;5074632;28;19962;-72
2023/06/14 09:39:18;;;;;;;;;;;;;;;;;;5073998;28;19958;-72
2023/06/14 09:41:44;;;;;;;;;;;;;;;;;;5073967;28;19980;-72
2023/06/14 09:44:11;;;;;;;;;;;;;;;;;;5073662;28;19999;-72
2023/06/14 09:46:37;;;;;;;;;;;;;;;;;;5074174;28;19966;-72
2023/06/14 09:49:03;;;;;;;;;;;;;;;;;;5074141;28;20402;-72
2023/06/14 09:51:32;;;;;;;;;;;;;;;;;;5074406;28;19960;-72
2023/06/14 09:53:58;;;;;;;;;;;;;;;;;;5073804;28;19995;-72
2023/06/14 09:56:24;;;;;;;;;;;;;;;;;;5074327;28;20307;-72
2023/06/14 09:58:50;;;;;;;;;;;;;;;;;;5074073;28;20021;-72
2023/06/14 10:01:17;;;;;;;;;;;;;;;;;;5073609;28;20452;-72
2023/06/14 10:03:43;;;;;;;;;;;;;;;;;;5073710;28;20333;-72
2023/06/14 10:06:09;;;;;;;;;;;;;;;;;;5074162;28;19955;-72
2023/06/14 10:08:35;;;;;;;;;;;;;;;;;;5073652;28;19962;-72
2023/06/14 10:11:01;;;;;;;;;;;;;;;;;;5074219;28;19980;-72
2023/06/14 10:13:27;;;;;;;;;;;;;;;;;;5073572;28;19959;-72
2023/06/14 10:15:53;;;;;;;;;;;;;;;;;;5073784;28;20066;-72
2023/06/14 10:18:22;;;;;;;;;;;;;;;;;;5073527;28;19955;-72
2023/06/14 10:20:47;;;;;;;;;;;;;;;;;;5074039;28;19979;-72
2023/06/14 10:23:13;;;;;;;;;;;;;;;;;;5073465;28;19962;-72
2023/06/14 10:25:39;;;;;;;;;;;;;;;;;;5074017;28;19956;-72
2023/06/14 10:28:05;;;;;;;;;;;;;;;;;;5073427;28;19956;-71
2023/06/14 10:30:31;;;;;;;;;;;;;;;;;;5073989;28;20496;-72
2023/06/14 10:32:57;;;;;;;;;;;;;;;;;;5073381;28;20046;-72
2023/06/14 10:35:23;;;;;;;;;;;;;;;;;;5073321;28;19972;-72
2023/06/14 10:37:49;;;;;;;;;;;;;;;;;;5073910;28;19956;-72
2023/06/14 10:40:15;;;;;;;;;;;;;;;;;;5073218;28;19956;-72
2023/06/14 10:42:41;;;;;;;;;;;;;;;;;;5071621;28;20080;-72
2023/06/14 10:45:07;;;;;;;;;;;;;;;;;;5073555;28;20056;-72
2023/06/14 10:47:34;;;;;;;;;;;;;;;;;;5076449;28;19955;-72
2023/06/14 10:50:00;;;;;;;;;;;;;;;;;;5077266;28;20337;-71
2023/06/14 10:52:27;;;;;;;;;;;;;;;;;;5077709;28;20040;-72
2023/06/14 10:54:53;;;;;;;;;;;;;;;;;;5077129;28;20050;-72
2023/06/14 10:57:20;;;;;;;;;;;;;;;;;;5077352;28;20052;-72
2023/06/14 10:59:46;;;;;;;;;;;;;;;;;;5077026;28;19964;-72
2023/06/14 11:02:11;;;;;;;;;;;;;;;;;;5075358;28;19987;-72
2023/06/14 11:04:37;;;;;;;;;;;;;;;;;;5076933;28;20388;-73
2023/06/14 11:07:03;;;;;;;;;;;;;;;;;;5076790;28;19955;-71
2023/06/14 11:09:30;;;;;;;;;;;;;;;;;;5075465;28;19995;-72
2023/06/14 11:11:56;;;;;;;;;;;;;;;;;;5077086;28;19999;-71
2023/06/14 11:14:22;;;;;;;;;;;;;;;;;;5076663;28;19962;-72
2023/06/14 11:16:48;;;;;;;;;;;;;;;;;;5076636;28;20480;-72
2023/06/14 11:19:14;;;;;;;;;;;;;;;;;;5076604;28;19956;-71
2023/06/14 11:21:40;;;;;;;;;;;;;;;;;;5076754;28;20001;-71
2023/06/14 11:24:06;;;;;;;;;;;;;;;;;;5076867;28;19963;-72
2023/06/14 11:26:34;;;;;;;;;;;;;;;;;;5077053;28;19955;-72
2023/06/14 11:29:00;;;;;;;;;;;;;;;;;;5076490;28;19959;-72
2023/06/14 11:31:26;;;;;;;;;;;;;;;;;;5077073;28;19978;-72
2023/06/14 11:33:52;;;;;;;;;;;;;;;;;;5076365;28;20428;-71
2023/06/14 11:36:18;;;;;;;;;;;;;;;;;;5076906;28;20396;-72
2023/06/14 11:38:44;;;;;;;;;;;;;;;;;;5076582;28;19956;-72
2023/06/14 11:41:10;;;;;;;;;;;;;;;;;;5076155;28;19983;-72
2023/06/14 11:43:37;;;;;;;;;;;;;;;;;;5076063;28;20390;-71
2023/06/14 11:46:03;;;;;;;;;;;;;;;;;;5076717;28;20420;-71
2023/06/14 11:48:29;;;;;;;;;;;;;;;;;;5076135;28;19956;-72
2023/06/14 11:50:55;;;;;;;;;;;;;;;;;;5076371;28;19963;-72
2023/06/14 11:53:21;;;;;;;;;;;;;;;;;;5076336;28;19959;-72
2023/06/14 11:55:47;;;;;;;;;;;;;;;;;;5076303;28;20433;-72
2023/06/14 11:58:13;;;;;;;;;;;;;;;;;;5075763;28;19955;-72
2023/06/14 12:00:39;;;;;;;;;;;;;;;;;;5076091;28;19983;-72
2023/06/14 12:03:05;;;;;;;;;;;;;;;;;;5076193;28;19955;-72
2023/06/14 12:05:32;;;;;;;;;;;;;;;;;;5075815;28;20324;-72
2023/06/14 12:07:58;;;;;;;;;;;;;;;;;;5075814;28;19962;-72
2023/06/14 12:10:26;;;;;;;;;;;;;;;;;;5076024;28;19977;-71
2023/06/14 12:12:51;;;;;;;;;;;;;;;;;;5076055;28;19955;-72
2023/06/14 12:15:17;;;;;;;;;;;;;;;;;;5075566;28;20004;-72
2023/06/14 12:17:43;;;;;;;;;;;;;;;;;;5075576;28;19956;-71
2023/06/14 12:20:21;;;;;;;;;;;;;;;;;;5075576;28;19978;-72
2023/06/14 12:22:48;;;;;;;;;;;;;;;;;;5074269;28;19973;-71
2023/06/14 12:25:14;;;;;;;;;;;;;;;;;;5075740;28;19955;-72
2023/06/14 12:27:40;;;;;;;;;;;;;;;;;;5075365;28;19956;-71
2023/06/14 12:30:07;;;;;;;;;;;;;;;;;;5076448;28;19987;-71
2023/06/14 12:32:33;;;;;;;;;;;;;;;;;;5075297;28;20429;-71
2023/06/14 12:34:59;;;;;;;;;;;;;;;;;;5075381;28;19972;-71
2023/06/14 12:37:25;;;;;;;;;;;;;;;;;;5075194;28;19956;-72
2023/06/14 12:39:51;;;;;;;;;;;;;;;;;;5075141;28;19982;-72
2023/06/14 12:42:17;;;;;;;;;;;;;;;;;;5075063;28;20019;-72
2023/06/14 12:44:43;;;;;;;;;;;;;;;;;;5074865;28;20044;-72
2023/06/14 12:47:08;;;;;;;;;;;;;;;;;;5075511;28;20402;-72
2023/06/14 12:49:35;;;;;;;;;;;;;;;;;;5075233;28;20002;-72
2023/06/14 12:52:00;;;;;;;;;;;;;;;;;;5074970;28;19955;-72
2023/06/14 12:54:26;;;;;;;;;;;;;;;;;;5074855;28;19962;-72
2023/06/14 12:56:53;;;;;;;;;;;;;;;;;;5075347;28;20441;-72
2023/06/14 12:59:18;;;;;;;;;;;;;;;;;;5075049;28;19963;-72
2023/06/14 13:01:44;;;;;;;;;;;;;;;;;;5075176;28;19975;-72
2023/06/14 13:04:10;;;;;;;;;;;;;;;;;;5074960;28;19962;-72
2023/06/14 13:06:36;;;;;;;;;;;;;;;;;;5074626;28;20066;-72
2023/06/14 13:09:03;;;;;;;;;;;;;;;;;;5073948;28;20433;-72
2023/06/14 13:11:30;;;;;;;;;;;;;;;;;;5075090;28;20405;-72
2023/06/14 13:13:56;;;;;;;;;;;;;;;;;;5073223;28;19964;-72
2023/06/14 13:16:21;;;;;;;;;;;;;;;;;;5074713;28;20007;-72
2023/06/14 13:18:47;;;;;;;;;;;;;;;;;;5074330;28;19959;-72
2023/06/14 13:21:13;;;;;;;;;;;;;;;;;;5074271;28;19975;-72
2023/06/14 13:23:39;;;;;;;;;;;;;;;;;;5074589;28;19959;-72
2023/06/14 13:26:05;;;;;;;;;;;;;;;;;;5074262;28;20337;-72
2023/06/14 13:28:32;;;;;;;;;;;;;;;;;;5074464;28;20046;-72
2023/06/14 13:30:58;;;;;;;;;;;;;;;;;;5074643;28;19968;-72
2023/06/14 13:33:24;;;;;;;;;;;;;;;;;;5074122;28;19956;-72
2023/06/14 13:35:52;;;;;;;;;;;;;;;;;;5074019;28;19971;-72
2023/06/14 13:38:18;;;;;;;;;;;;;;;;;;5074095;28;19962;-72
2023/06/14 13:40:44;;;;;;;;;;;;;;;;;;5073919;28;19975;-72
2023/06/14 13:43:10;;;;;;;;;;;;;;;;;;5073561;28;20437;-72
2023/06/14 13:45:36;;;;;;;;;;;;;;;;;;5073418;28;19998;-72
2023/06/14 13:48:02;;;;;;;;;;;;;;;;;;5073706;28;19963;-72
2023/06/14 13:50:28;;;;;;;;;;;;;;;;;;5073063;28;20002;-72
2023/06/14 13:52:54;;;;;;;;;;;;;;;;;;5073058;28;20050;-72
2023/06/14 13:55:20;;;;;;;;;;;;;;;;;;5073007;28;19955;-72
2023/06/14 13:57:46;;;;;;;;;;;;;;;;;;5071721;28;20050;-72
2023/06/14 14:00:12;;;;;;;;;;;;;;;;;;5073227;28;20047;-72
2023/06/14 14:02:39;;;;;;;;;;;;;;;;;;5072825;28;20527;-72
2023/06/14 14:05:05;;;;;;;;;;;;;;;;;;5073215;28;20440;-72
2023/06/14 14:07:31;;;;;;;;;;;;;;;;;;5073122;28;19955;-72
2023/06/14 14:09:57;;;;;;;;;;;;;;;;;;5072843;28;19959;-72
2023/06/14 14:12:23;;;;;;;;;;;;;;;;;;5073129;28;19962;-72
2023/06/14 14:14:50;;;;;;;;;;;;;;;;;;5072822;28;19955;-72
2023/06/14 14:17:16;;;;;;;;;;;;;;;;;;5072838;28;19956;-72
2023/06/14 14:19:42;;;;;;;;;;;;;;;;;;5072444;28;19998;-72
2023/06/14 14:22:08;;;;;;;;;;;;;;;;;;5071372;28;19986;-72
2023/06/14 14:24:33;;;;;;;;;;;;;;;;;;5072612;28;20423;-72
2023/06/14 14:27:00;;;;;;;;;;;;;;;;;;5072901;28;19962;-72
2023/06/14 14:29:28;;;;;;;;;;;;;;;;;;5072595;28;20325;-72
2023/06/14 14:31:55;;;;;;;;;;;;;;;;;;5073106;28;20429;-71
2023/06/14 14:34:20;;;;;;;;;;;;;;;;;;5072830;28;19975;-72
2023/06/14 14:36:46;;;;;;;;;;;;;;;;;;5072463;28;19956;-72
2023/06/14 14:39:12;;;;;;;;;;;;;;;;;;5072390;28;20021;-72
2023/06/14 14:41:39;;;;;;;;;;;;;;;;;;5072857;28;20433;-72
2023/06/14 14:44:05;;;;;;;;;;;;;;;;;;5004195;28;1943822;-72
2023/06/14 14:46:31;;;;;;;;;;;;;;;;;;5073547;28;19955;-71
2023/06/14 14:48:57;;;;;;;;;;;;;;;;;;5073190;28;19960;-71
2023/06/14 14:51:23;;;;;;;;;;;;;;;;;;5073242;28;19956;-71
2023/06/14 14:53:49;;;;;;;;;;;;;;;;;;5073440;28;19962;-72
2023/06/14 14:56:15;;;;;;;;;;;;;;;;;;5073455;28;19963;-72
2023/06/14 14:58:41;;;;;;;;;;;;;;;;;;5073131;28;19969;-71
2023/06/14 15:01:07;;;;;;;;;;;;;;;;;;5073581;28;19982;-71
2023/06/14 15:03:33;;;;;;;;;;;;;;;;;;5073096;28;19955;-72
2023/06/14 15:05:59;;;;;;;;;;;;;;;;;;5073368;28;20002;-71
2023/06/14 15:08:25;;;;;;;;;;;;;;;;;;5073017;28;19955;-71
2023/06/14 15:10:51;;;;;;;;;;;;;;;;;;5073341;28;20002;-72
2023/06/14 15:13:17;;;;;;;;;;;;;;;;;;5073263;28;20458;-71
2023/06/14 15:15:42;;;;;;;;;;;;;;;;;;5073287;28;19956;-71
2023/06/14 15:18:09;;;;;;;;;;;;;;;;;;5072983;28;19955;-71
2023/06/14 15:20:35;;;;;;;;;;;;;;;;;;5073432;28;19956;-71
2023/06/14 15:23:01;;;;;;;;;;;;;;;;;;5072938;28;20302;-71
2023/06/14 15:25:27;;;;;;;;;;;;;;;;;;5072897;28;19998;-71
2023/06/14 15:27:53;;;;;;;;;;;;;;;;;;5073137;28;19956;-71
2023/06/14 15:30:22;;;;;;;;;;;;;;;;;;5072900;28;19962;-72
2023/06/14 15:32:48;;;;;;;;;;;;;;;;;;5074885;28;19966;-71
2023/06/14 15:35:14;;;;;;;;;;;;;;;;;;5076323;28;20352;-72
2023/06/14 15:37:40;;;;;;;;;;;;;;;;;;5076689;28;20100;-72
2023/06/14 15:40:06;;;;;;;;;;;;;;;;;;5077104;28;19959;-71
2023/06/14 15:42:32;;;;;;;;;;;;;;;;;;5076032;28;19983;-71
2023/06/14 15:44:57;;;;;;;;;;;;;;;;;;5076856;28;20489;-71
2023/06/14 15:47:23;;;;;;;;;;;;;;;;;;5076112;28;19955;-71
2023/06/14 15:49:49;;;;;;;;;;;;;;;;;;5076107;28;20046;-72
2023/06/14 15:52:15;;;;;;;;;;;;;;;;;;5076089;28;20408;-71
2023/06/14 15:54:41;;;;;;;;;;;;;;;;;;5076304;28;19956;-71
2023/06/14 15:57:07;;;;;;;;;;;;;;;;;;5076275;28;20010;-71
2023/06/14 15:59:33;;;;;;;;;;;;;;;;;;5076033;28;19991;-71
2023/06/14 16:01:59;;;;;;;;;;;;;;;;;;5075885;28;20037;-71
2023/06/14 16:04:25;;;;;;;;;;;;;;;;;;5075906;28;19955;-71
2023/06/14 16:06:52;;;;;;;;;;;;;;;;;;5076130;28;19956;-71
2023/06/14 16:09:19;;;;;;;;;;;;;;;;;;5075795;28;19960;-71
2023/06/14 16:11:45;;;;;;;;;;;;;;;;;;5076099;28;19998;-71
2023/06/14 16:14:11;;;;;;;;;;;;;;;;;;5075701;28;19955;-71
2023/06/14 16:16:37;;;;;;;;;;;;;;;;;;5076236;28;20421;-71
2023/06/14 16:19:04;;;;;;;;;;;;;;;;;;5075857;28;20038;-72
2023/06/14 16:21:33;;;;;;;;;;;;;;;;;;5075793;28;20025;-71
2023/06/14 16:23:59;;;;;;;;;;;;;;;;;;5075491;28;20021;-72
2023/06/14 16:26:25;;;;;;;;;;;;;;;;;;5075474;28;19956;-71
2023/06/14 16:28:51;;;;;;;;;;;;;;;;;;5075613;28;20341;-71
2023/06/14 16:31:18;;;;;;;;;;;;;;;;;;5075915;28;19960;-71
2023/06/14 16:33:45;;;;;;;;;;;;;;;;;;5075266;28;19956;-71
2023/06/14 16:36:12;;;;;;;;;;;;;;;;;;5075296;28;19966;-71
2023/06/14 16:38:38;;;;;;;;;;;;;;;;;;5075268;28;20417;-71